Terminal Aerodrome Forecast
Issued by NWS

Home | Current Version | Previous Version | Text Only | Print | Product List | Glossary On
Versions: 1 2 3 4 5 6 7 8 9 10 11 12 13 14 15
173
FTUS43 KUNR 072320
TAFGCC
TAF
KGCC 072320Z 0800/0824 32024G34KT P6SM SCT150
     FM080100 30020KT P6SM SCT200
     FM081500 29011KT P6SM BKN100=

USA.gov is the U.S. government's official web portal to all federal, state and local government web resources and services.